Startpagina
METAR-TAF:

METAR-TAF

Vliegvelden :

Mauritius, Plaisance, Mauritius

breedte: 20-26S, lengte: 057-40E, hoogte: 55 m

Actueel weer

Dit bericht is 33 minuten geleden gemaakt, om 12:00 UTC
Wind 11 kt uit het oostnoordoosten
Temperatuur 29°C
Vochtigheid 74%
Druk 1015 hPa
Zicht: 8000 m
Weinig wolken op 1500 ft, Stapelwolken.
Verspreide wolken op 1500 ft
buien in de omgeving

METAR: FIMP 271200Z 07011KT 8000 VCSH FEW015TCU SCT015 29/24 Q1015

Tijdstip: 16:33 (12:33 UTC)

Verwachting

Dit bericht is 1 uur en het 23 minuten geleden gemaakt, om 11:10 UTC
Verwachting geldig van 27 om 12 UTC tot 28 om 18 UTC
Wind 12 kt uit het oostnoordoosten
Zicht 10 km of meer
Verspreide wolken op 1700 ft
Wijzigt naar
van 27 om 18 UTC tot 27 om 20 UTC
Wind 3 kt uit het noordwesten
Wijzigt naar
van 28 om 04 UTC tot 28 om 06 UTC
Wind 8 kt uit het oostnoordoosten

TAF: FIMP 271110Z 2712/2818 06012KT 9999 SCT017 BECMG 2718/2720 32003KT BECMG 2804/2806 06008KT

Waarnemingen en weersverwachtingen van meer dan 4000 vliegvelden (METAR en TAF).

De beschikbare stations zijn de gele en rode punten op de kaart.

Ga met uw muis naar het station om de naam te zien.

Klik dan om waarnemingen en weersverwachtingen te zien.

kaart wijzigen: klik op de groene knoppen met een zwart kruis om in te zoomen, op de groene knop met een streepje om uit te zoomen of op de groene pijlen voor aangrenzende kaarten.


METAR-TAF: